Time;durP1;ratioP1;P1;durP2;ratioP2;P2;SDS_P1;SDS_P2;PMS_P1;PMS_P2;Temp;Humidity;BMP_temperature;BMP_pressure;BME280_temperature;BME280_humidity;BME280_pressure;Samples;Min_cycle;Max_cycle;Signal;HPM_P1;HPM_P2
2023/09/19 00:01:09;;;;;;;26.63;18.00;;;13.10;99.90;;;;;;4946854;29;20015;-84
2023/09/19 00:03:38;;;;;;;26.88;19.00;;;13.10;99.90;;;;;;4961128;29;20201;-82
2023/09/19 00:06:06;;;;;;;25.08;18.27;;;13.00;99.90;;;;;;4972063;28;20081;-84
2023/09/19 00:08:33;;;;;;;26.20;17.38;;;12.90;99.90;;;;;;4942663;29;20480;-83
2023/09/19 00:11:05;;;;;;;25.25;18.88;;;12.80;99.90;;;;;;4958734;28;20492;-84
2023/09/19 00:13:32;;;;;;;26.95;18.65;;;12.70;99.90;;;;;;4959918;28;20023;-84
2023/09/19 00:15:58;;;;;;;23.23;18.03;;;12.70;99.90;;;;;;4943301;28;20053;-84
2023/09/19 00:18:29;;;;;;;25.83;16.52;;;12.70;99.90;;;;;;4964964;28;20027;-89
2023/09/19 00:20:58;;;;;;;25.05;16.98;;;12.70;99.90;;;;;;4964193;28;20591;-90
2023/09/19 00:23:24;;;;;;;25.60;17.92;;;12.70;99.90;;;;;;4946499;29;20030;-88
2023/09/19 00:25:51;;;;;;;25.88;17.80;;;12.70;99.90;;;;;;4933871;29;20481;-91
2023/09/19 00:28:19;;;;;;;26.80;19.27;;;12.70;99.90;;;;;;4983074;28;20033;-91
2023/09/19 00:30:55;;;;;;;29.25;22.30;;;12.70;99.90;;;;;;4983514;28;20079;-89
2023/09/19 00:33:22;;;;;;;28.00;22.35;;;12.70;99.90;;;;;;4970961;28;20034;-91
2023/09/19 00:35:54;;;;;;;29.00;23.25;;;12.70;99.90;;;;;;4963516;28;20031;-89
2023/09/19 00:38:22;;;;;;;31.15;24.17;;;12.70;99.90;;;;;;4946315;29;20036;-87
2023/09/19 00:40:49;;;;;;;38.42;27.92;;;12.70;99.90;;;;;;4967563;29;20020;-86
2023/09/19 00:43:16;;;;;;;35.65;30.50;;;12.70;99.90;;;;;;4970116;28;20110;-85
2023/09/19 00:45:45;;;;;;;34.17;26.85;;;12.70;99.90;;;;;;4966864;28;20023;-86
2023/09/19 00:48:11;;;;;;;39.67;28.10;;;12.60;99.90;;;;;;4959416;28;20038;-87
2023/09/19 00:50:41;;;;;;;38.78;29.05;;;12.60;99.90;;;;;;4942377;29;20035;-86
2023/09/19 00:53:13;;;;;;;35.72;28.08;;;12.70;99.90;;;;;;4957700;28;20019;-87
2023/09/19 00:55:39;;;;;;;32.10;26.75;;;12.70;99.90;;;;;;4959833;28;20027;-86
2023/09/19 00:58:06;;;;;;;36.15;27.05;;;12.70;99.90;;;;;;4940035;29;20039;-86
2023/09/19 01:00:33;;;;;;;35.97;26.70;;;12.70;99.90;;;;;;4957070;28;20480;-86
2023/09/19 01:03:01;;;;;;;36.55;26.67;;;12.80;99.90;;;;;;4962940;28;20492;-89
2023/09/19 01:05:28;;;;;;;31.08;24.05;;;12.80;99.90;;;;;;4971494;28;20049;-88
2023/09/19 01:07:54;;;;;;;32.53;25.90;;;12.80;99.90;;;;;;4960492;28;20067;-88
2023/09/19 01:10:21;;;;;;;34.50;25.90;;;12.80;99.90;;;;;;4975567;28;20018;-89
2023/09/19 01:13:14;;;;;;;36.53;26.30;;;12.80;99.90;;;;;;4961118;28;20436;-87
2023/09/19 01:16:12;;;;;;;33.63;25.10;;;12.80;99.90;;;;;;4956690;28;20119;-88
2023/09/19 01:18:55;;;;;;;31.50;23.58;;;12.80;99.90;;;;;;4924856;29;20045;-88
2023/09/19 01:21:39;;;;;;;31.42;22.70;;;12.70;99.90;;;;;;4941068;29;20031;-89
2023/09/19 01:24:27;;;;;;;31.15;23.42;;;12.70;99.90;;;;;;4957438;28;20406;-88
2023/09/19 01:27:28;;;;;;;29.40;21.45;;;12.80;99.80;;;;;;4956748;28;20039;-87
2023/09/19 01:30:09;;;;;;;30.92;22.50;;;12.80;99.60;;;;;;4923595;29;20045;-87
2023/09/19 01:32:37;;;;;;;28.05;20.92;;;12.80;99.40;;;;;;4958590;28;20027;-88
2023/09/19 01:35:06;;;;;;;33.97;23.13;;;12.70;99.30;;;;;;4963967;28;20060;-89
2023/09/19 01:37:32;;;;;;;34.85;22.60;;;12.70;99.30;;;;;;4959019;28;20377;-90
2023/09/19 01:40:25;;;;;;;30.05;23.45;;;12.70;99.20;;;;;;4967280;28;20082;-89
2023/09/19 01:42:59;;;;;;;32.88;22.58;;;12.70;99.10;;;;;;4956027;28;20031;-89
2023/09/19 01:45:47;;;;;;;26.67;21.33;;;12.70;99.20;;;;;;4970755;28;20047;-90
2023/09/19 01:48:13;;;;;;;;;;;12.70;99.30;;;;;;4973678;28;20087;-90
2023/09/19 01:50:49;;;;;;;28.20;21.80;;;12.70;99.30;;;;;;4949508;29;19911;-89
2023/09/19 01:53:36;;;;;;;29.88;23.98;;;12.70;99.30;;;;;;4960003;28;20049;-89
2023/09/19 01:56:05;;;;;;;30.08;23.23;;;12.70;99.40;;;;;;4939882;29;20054;-88
2023/09/19 01:58:56;;;;;;;30.90;22.25;;;12.70;99.40;;;;;;4956910;29;20058;-87
2023/09/19 02:01:24;;;;;;;36.40;24.80;;;12.70;99.40;;;;;;4985341;28;20053;-90
2023/09/19 02:03:50;;;;;;;28.73;23.80;;;12.70;99.40;;;;;;4971363;28;20042;-90
2023/09/19 02:06:18;;;;;;;30.35;22.98;;;12.60;99.30;;;;;;4939654;29;20042;-88
2023/09/19 02:08:45;;;;;;;29.50;23.15;;;12.60;99.20;;;;;;4959392;28;20130;-88
2023/09/19 02:11:12;;;;;;;33.90;24.27;;;12.60;99.30;;;;;;4939395;29;20050;-89
2023/09/19 02:13:39;;;;;;;28.85;23.23;;;12.40;99.30;;;;;;4939186;28;20035;-88
2023/09/19 02:16:06;;;;;;;29.88;22.20;;;12.30;99.40;;;;;;4968477;28;20035;-88
2023/09/19 02:18:34;;;;;;;28.70;22.35;;;12.20;99.60;;;;;;4938041;29;20031;-85
2023/09/19 02:21:01;;;;;;;29.13;22.38;;;12.10;99.80;;;;;;4938170;29;20028;-86
2023/09/19 02:23:27;;;;;;;32.10;23.47;;;12.00;99.90;;;;;;4938528;29;20377;-87
2023/09/19 02:26:06;;;;;;;28.08;21.60;;;11.80;99.90;;;;;;4955226;28;20075;-85
2023/09/19 02:28:32;;;;;;;26.45;21.83;;;11.80;99.90;;;;;;4937927;29;20540;-85
2023/09/19 02:30:58;;;;;;;27.90;22.02;;;11.70;99.90;;;;;;4954675;29;20127;-84
2023/09/19 02:33:24;;;;;;;35.03;23.33;;;11.60;99.90;;;;;;4940610;29;20051;-86
2023/09/19 02:35:54;;;;;;;28.42;22.02;;;11.60;99.90;;;;;;4958746;29;20389;-85
2023/09/19 02:38:24;;;;;;;28.02;22.73;;;11.50;99.90;;;;;;4955819;29;20019;-85
2023/09/19 02:40:50;;;;;;;24.98;22.08;;;11.50;99.90;;;;;;4938888;29;20574;-86
2023/09/19 02:43:17;;;;;;;29.67;21.77;;;11.40;99.90;;;;;;4944069;29;20023;-85
2023/09/19 02:45:43;;;;;;;27.98;21.98;;;11.30;99.90;;;;;;4954592;28;20476;-86
2023/09/19 02:48:08;;;;;;;35.08;21.95;;;11.30;99.90;;;;;;4955259;29;20039;-86
2023/09/19 02:50:34;;;;;;;34.53;22.17;;;11.30;99.90;;;;;;4937529;29;20171;-85
2023/09/19 02:53:00;;;;;;;29.05;21.33;;;11.30;99.90;;;;;;4937535;29;20038;-85
2023/09/19 02:55:26;;;;;;;28.55;21.40;;;11.20;99.90;;;;;;4954728;29;20023;-85
2023/09/19 02:57:56;;;;;;;31.52;22.48;;;11.20;99.90;;;;;;4937354;29;20047;-85
2023/09/19 03:00:23;;;;;;;28.75;21.83;;;11.20;99.90;;;;;;4956798;29;20472;-86
2023/09/19 03:02:50;;;;;;;30.98;22.75;;;11.20;99.90;;;;;;4954599;29;20031;-86
2023/09/19 03:05:16;;;;;;;26.25;20.25;;;11.20;99.90;;;;;;4937523;29;20042;-86
2023/09/19 03:07:43;;;;;;;32.03;21.13;;;11.10;99.90;;;;;;4943573;29;20418;-86
2023/09/19 03:10:09;;;;;;;30.88;21.92;;;11.10;99.90;;;;;;4955054;29;20461;-86
2023/09/19 03:12:35;;;;;;;27.33;21.05;;;11.20;99.90;;;;;;4955040;29;20028;-85
2023/09/19 03:15:04;;;;;;;30.58;20.60;;;11.20;99.90;;;;;;4936718;29;20019;-84
2023/09/19 03:17:30;;;;;;;28.30;20.92;;;11.20;99.90;;;;;;4955014;28;20023;-87
2023/09/19 03:19:57;;;;;;;27.35;20.05;;;11.20;99.90;;;;;;4936853;29;20122;-86
2023/09/19 03:22:24;;;;;;;26.38;21.77;;;11.30;99.90;;;;;;4936911;29;20035;-86
2023/09/19 03:24:50;;;;;;;30.65;21.70;;;11.30;99.90;;;;;;4937285;29;20031;-86
2023/09/19 03:27:16;;;;;;;31.35;21.48;;;11.40;99.90;;;;;;4940069;29;20130;-85
2023/09/19 03:29:42;;;;;;;25.92;20.95;;;11.60;99.90;;;;;;4940974;29;20047;-84
2023/09/19 03:32:11;;;;;;;36.28;21.35;;;11.60;99.90;;;;;;4956257;29;20016;-85
2023/09/19 03:34:42;;;;;;;34.78;20.65;;;11.70;99.90;;;;;;4952632;29;20033;-85
2023/09/19 03:37:09;;;;;;;25.55;20.33;;;11.80;99.90;;;;;;4973428;29;20051;-87
2023/09/19 03:39:35;;;;;;;26.33;19.58;;;11.90;99.90;;;;;;4958126;29;20038;-88
2023/09/19 03:42:06;;;;;;;30.17;22.42;;;11.90;99.90;;;;;;4953376;29;20035;-87
2023/09/19 03:44:32;;;;;;;28.38;21.08;;;12.00;99.90;;;;;;4936852;29;20470;-87
2023/09/19 03:46:58;;;;;;;27.23;21.60;;;12.10;99.90;;;;;;4936402;29;20027;-85
2023/09/19 03:49:24;;;;;;;28.38;20.08;;;12.10;99.90;;;;;;4936947;29;20417;-88
2023/09/19 03:51:50;;;;;;;29.17;20.27;;;12.20;99.90;;;;;;4937496;29;20023;-88
2023/09/19 03:54:19;;;;;;;26.65;21.05;;;12.20;99.90;;;;;;4954430;29;20057;-87
2023/09/19 03:56:45;;;;;;;33.22;20.52;;;12.30;99.90;;;;;;4954406;29;20503;-87
2023/09/19 03:59:12;;;;;;;32.90;20.00;;;12.30;99.90;;;;;;4954094;29;20023;-87
2023/09/19 04:01:41;;;;;;;28.58;21.55;;;12.30;99.90;;;;;;4954246;29;20504;-86
2023/09/19 04:04:11;;;;;;;24.83;21.67;;;12.40;99.90;;;;;;4937148;29;20023;-88
2023/09/19 04:06:37;;;;;;;30.67;21.92;;;12.40;99.90;;;;;;4954980;29;20027;-88
2023/09/19 04:09:04;;;;;;;30.40;20.80;;;12.40;99.90;;;;;;4938851;29;20039;-87
2023/09/19 04:11:33;;;;;;;31.77;22.52;;;12.40;99.90;;;;;;4941748;29;20102;-87
2023/09/19 04:13:59;;;;;;;31.30;22.52;;;12.50;99.90;;;;;;4957881;28;20166;-87
2023/09/19 04:16:25;;;;;;;36.75;23.35;;;12.50;99.90;;;;;;4958298;28;20425;-86
2023/09/19 04:18:51;;;;;;;36.92;24.30;;;12.50;99.90;;;;;;4958389;29;20023;-86
2023/09/19 04:21:17;;;;;;;34.28;23.95;;;12.60;99.90;;;;;;4960291;29;20027;-87
2023/09/19 04:23:43;;;;;;;24.90;21.15;;;12.60;99.90;;;;;;4957729;29;20024;-86
2023/09/19 04:26:08;;;;;;;33.17;23.38;;;12.60;99.90;;;;;;4940562;29;20023;-86
2023/09/19 04:28:36;;;;;;;33.03;23.50;;;12.60;99.90;;;;;;4940849;29;20061;-87
2023/09/19 04:31:02;;;;;;;31.30;23.52;;;12.60;99.90;;;;;;4947638;29;20042;-87
2023/09/19 04:33:29;;;;;;;32.10;23.63;;;12.60;99.90;;;;;;4948472;29;20051;-86
2023/09/19 04:35:55;;;;;;;33.20;24.90;;;12.70;99.90;;;;;;4943630;29;20055;-86
2023/09/19 04:38:22;;;;;;;26.30;22.95;;;12.70;99.90;;;;;;4944061;29;20027;-86
2023/09/19 04:40:48;;;;;;;38.15;24.92;;;12.80;99.80;;;;;;4960052;29;20024;-86
2023/09/19 04:43:15;;;;;;;31.77;23.88;;;12.80;99.70;;;;;;4960064;29;20050;-86
2023/09/19 04:45:41;;;;;;;32.53;23.00;;;12.80;99.50;;;;;;4951387;29;20019;-86
2023/09/19 04:48:08;;;;;;;32.90;21.08;;;12.90;99.50;;;;;;4940395;29;20039;-85
2023/09/19 04:50:34;;;;;;;33.35;21.48;;;12.90;99.30;;;;;;4942526;29;20494;-86
2023/09/19 04:53:01;;;;;;;28.23;19.50;;;13.00;99.20;;;;;;4956395;29;20521;-86
2023/09/19 04:55:27;;;;;;;34.77;20.07;;;13.00;99.00;;;;;;4969685;29;20111;-86
2023/09/19 04:57:53;;;;;;;25.50;19.90;;;13.00;98.90;;;;;;4962729;29;20115;-86
2023/09/19 05:00:29;;;;;;;29.77;19.85;;;13.10;98.80;;;;;;4957190;29;20011;-86
2023/09/19 05:02:56;;;;;;;25.50;19.00;;;13.10;98.70;;;;;;4941317;29;20035;-84
2023/09/19 05:05:23;;;;;;;26.60;20.92;;;13.20;98.60;;;;;;4954522;29;20027;-86
2023/09/19 05:07:49;;;;;;;24.58;18.17;;;13.20;98.50;;;;;;4937392;29;20400;-85
2023/09/19 05:10:18;;;;;;;29.17;19.42;;;13.30;98.90;;;;;;4924167;29;20401;-87
2023/09/19 05:12:48;;;;;;;27.30;20.23;;;13.30;98.80;;;;;;4938673;29;20024;-85
2023/09/19 05:15:16;;;;;;;24.92;20.85;;;13.40;98.70;;;;;;4938145;29;20039;-86
2023/09/19 05:17:47;;;;;;;34.47;21.73;;;13.40;98.30;;;;;;4942269;29;20032;-87
2023/09/19 05:20:16;;;;;;;29.98;19.00;;;13.40;98.30;;;;;;4919619;29;20024;-85
2023/09/19 05:22:46;;;;;;;28.40;20.48;;;13.50;98.30;;;;;;4945269;29;20078;-86
2023/09/19 05:25:16;;;;;;;24.40;18.80;;;13.60;98.40;;;;;;4947992;29;20034;-85
2023/09/19 05:27:43;;;;;;;29.08;19.92;;;13.80;98.20;;;;;;4927673;29;20119;-85
2023/09/19 05:30:09;;;;;;;29.20;20.08;;;13.90;97.80;;;;;;4943091;29;20063;-87
2023/09/19 05:32:35;;;;;;;27.42;18.08;;;14.00;97.50;;;;;;4947826;29;20035;-84
2023/09/19 05:35:01;;;;;;;26.30;18.52;;;14.10;97.20;;;;;;4946609;29;20028;-85
2023/09/19 05:37:27;;;;;;;24.63;18.55;;;14.10;97.00;;;;;;4923123;29;20055;-86
2023/09/19 05:39:55;;;;;;;27.88;18.55;;;14.20;97.00;;;;;;4938381;29;20040;-86
2023/09/19 05:42:21;;;;;;;22.58;18.08;;;14.30;96.60;;;;;;4924795;29;20086;-83
2023/09/19 05:44:47;;;;;;;28.85;25.00;;;14.30;96.60;;;;;;4937550;29;20110;-86
2023/09/19 05:47:13;;;;;;;20.45;16.92;;;14.20;96.50;;;;;;4937536;29;20078;-83
2023/09/19 05:49:38;;;;;;;26.30;18.67;;;14.20;96.40;;;;;;4937722;29;20027;-84
2023/09/19 05:52:07;;;;;;;23.20;17.80;;;14.10;96.40;;;;;;4947768;29;20012;-85
2023/09/19 05:54:34;;;;;;;34.88;24.67;;;14.10;96.40;;;;;;4926282;29;20398;-85
2023/09/19 05:57:02;;;;;;;29.90;20.40;;;14.10;96.70;;;;;;4937543;29;20027;-86
2023/09/19 05:59:28;;;;;;;32.70;19.98;;;14.20;96.70;;;;;;4935448;29;20031;-86
2023/09/19 06:01:55;;;;;;;32.47;19.67;;;14.20;96.50;;;;;;4936644;29;20075;-89
2023/09/19 06:04:21;;;;;;;24.67;19.67;;;14.30;96.50;;;;;;4940402;29;20016;-87
2023/09/19 06:06:48;;;;;;;22.48;17.70;;;14.40;96.30;;;;;;4938869;29;20028;-85
2023/09/19 06:09:14;;;;;;;28.33;19.90;;;14.40;96.20;;;;;;4944709;29;20040;-85
2023/09/19 06:11:42;;;;;;;31.02;20.42;;;14.40;96.10;;;;;;4920419;29;20035;-85
2023/09/19 06:14:11;;;;;;;23.90;19.15;;;14.50;96.00;;;;;;4931245;29;20474;-86
2023/09/19 06:16:41;;;;;;;48.17;22.40;;;14.50;96.00;;;;;;4931785;29;20528;-83
2023/09/19 06:19:08;;;;;;;29.70;19.55;;;14.60;95.90;;;;;;4936560;29;20074;-84
2023/09/19 06:21:34;;;;;;;23.92;16.70;;;14.60;95.80;;;;;;4937662;29;20027;-85
2023/09/19 06:24:00;;;;;;;26.33;18.88;;;14.60;95.70;;;;;;4936067;29;20024;-85
2023/09/19 06:26:27;;;;;;;26.05;19.80;;;14.70;95.50;;;;;;4918800;29;20320;-84
2023/09/19 06:28:52;;;;;;;23.70;18.73;;;14.70;95.60;;;;;;4920162;28;20035;-86
2023/09/19 06:31:18;;;;;;;26.15;20.13;;;14.80;95.40;;;;;;4954340;28;20152;-85
2023/09/19 06:33:44;;;;;;;26.83;19.65;;;14.90;95.30;;;;;;4955417;29;20042;-84
2023/09/19 06:36:11;;;;;;;29.23;19.38;;;14.90;95.10;;;;;;4956579;29;20384;-88
2023/09/19 06:38:39;;;;;;;26.98;18.50;;;15.00;95.10;;;;;;4961842;28;20029;-86
2023/09/19 06:41:05;;;;;;;23.38;17.33;;;15.10;95.00;;;;;;4976037;28;20055;-85
2023/09/19 06:43:33;;;;;;;22.00;18.35;;;15.10;95.00;;;;;;4973973;28;20027;-86
2023/09/19 06:46:00;;;;;;;27.48;19.00;;;15.10;95.00;;;;;;4932977;29;20020;-85
2023/09/19 06:48:26;;;;;;;25.65;19.15;;;15.30;94.80;;;;;;4955332;28;20118;-85
2023/09/19 06:50:58;;;;;;;22.98;17.70;;;15.60;94.70;;;;;;4935398;29;20031;-86
2023/09/19 06:53:24;;;;;;;26.35;17.30;;;16.00;94.10;;;;;;4951360;29;20098;-84
2023/09/19 06:55:54;;;;;;;23.15;18.08;;;16.40;93.30;;;;;;4939535;29;20503;-86
2023/09/19 06:58:20;;;;;;;27.30;20.15;;;16.50;92.60;;;;;;4954894;28;20035;-86
2023/09/19 07:00:47;;;;;;;24.98;19.75;;;16.50;92.50;;;;;;4956788;28;20023;-87
2023/09/19 07:03:16;;;;;;;27.63;20.30;;;16.70;92.40;;;;;;4937070;29;20425;-83
2023/09/19 07:05:42;;;;;;;27.02;20.73;;;17.00;91.90;;;;;;4954595;28;20545;-83
2023/09/19 07:08:12;;;;;;;29.70;20.50;;;17.10;91.60;;;;;;4963303;28;20059;-84
2023/09/19 07:10:47;;;;;;;24.00;19.50;;;17.30;91.40;;;;;;4968530;28;20018;-84
2023/09/19 07:13:13;;;;;;;27.30;20.70;;;17.40;91.10;;;;;;4949476;29;20038;-84
2023/09/19 07:15:39;;;;;;;26.80;20.15;;;17.70;90.90;;;;;;4970881;28;20020;-85
2023/09/19 07:18:06;;;;;;;31.15;21.23;;;17.90;90.40;;;;;;4959007;28;20031;-85
2023/09/19 07:20:32;;;;;;;24.10;19.77;;;18.10;89.90;;;;;;4936350;29;20034;-82
2023/09/19 07:23:01;;;;;;;33.45;22.33;;;18.30;89.20;;;;;;4936434;29;20389;-81
2023/09/19 07:25:31;;;;;;;29.75;21.10;;;18.60;88.00;;;;;;4938406;29;20084;-81
2023/09/19 07:27:59;;;;;;;30.17;22.00;;;18.90;86.80;;;;;;4957557;28;20043;-82
2023/09/19 07:30:26;;;;;;;59.10;25.48;;;19.20;85.90;;;;;;4953798;28;20401;-81
2023/09/19 07:32:52;;;;;;;31.20;20.30;;;19.40;85.10;;;;;;4953453;28;20035;-81
2023/09/19 07:35:20;;;;;;;28.88;22.05;;;19.70;85.00;;;;;;4953929;28;20027;-80
2023/09/19 07:37:49;;;;;;;38.55;23.15;;;20.00;83.30;;;;;;4961876;28;20038;-84
2023/09/19 07:40:19;;;;;;;26.58;23.08;;;20.10;82.40;;;;;;4954437;29;20024;-83
2023/09/19 07:42:46;;;;;;;31.25;21.95;;;20.20;81.80;;;;;;4954657;28;20114;-83
2023/09/19 07:45:16;;;;;;;26.25;20.83;;;20.10;81.80;;;;;;4940456;29;20027;-82
2023/09/19 07:47:50;;;;;;;25.40;19.80;;;20.00;82.10;;;;;;4964724;28;20035;-84
2023/09/19 07:50:18;;;;;;;27.85;21.95;;;19.60;82.40;;;;;;4937636;29;20401;-80
2023/09/19 07:52:45;;;;;;;29.25;22.83;;;19.30;83.40;;;;;;4951998;28;20175;-80
2023/09/19 07:55:15;;;;;;;31.95;21.00;;;19.20;84.00;;;;;;4957721;28;20016;-81
2023/09/19 07:57:42;;;;;;;29.25;20.98;;;19.10;84.60;;;;;;4957152;28;20341;-80
2023/09/19 08:00:09;;;;;;;50.57;26.77;;;19.30;84.80;;;;;;4956370;29;20023;-82
2023/09/19 08:02:40;;;;;;;31.88;22.70;;;19.40;84.00;;;;;;4956394;29;20015;-81
2023/09/19 08:05:10;;;;;;;24.20;21.25;;;19.40;83.90;;;;;;4945859;29;20092;-80
2023/09/19 08:07:37;;;;;;;29.75;20.15;;;19.40;84.00;;;;;;4959344;29;20035;-90
2023/09/19 08:10:06;;;;;;;26.48;20.85;;;19.40;83.80;;;;;;4960286;29;20019;-86
2023/09/19 08:12:32;;;;;;;31.10;22.35;;;19.60;84.50;;;;;;4958176;29;20028;-86
2023/09/19 08:14:58;;;;;;;41.87;23.33;;;19.80;83.50;;;;;;4957897;29;20366;-80
2023/09/19 08:17:24;;;;;;;26.70;21.20;;;20.10;82.70;;;;;;4956799;28;20086;-82
2023/09/19 08:19:52;;;;;;;36.95;22.42;;;20.20;82.00;;;;;;4957028;29;20077;-83
2023/09/19 08:22:19;;;;;;;30.52;20.45;;;20.30;81.30;;;;;;4957140;28;20434;-84
2023/09/19 08:24:46;;;;;;;;;;;20.40;81.10;;;;;;4957131;28;20031;-82
2023/09/19 08:27:12;;;;;;;38.30;22.23;;;20.30;81.90;;;;;;4956725;28;19927;-84
2023/09/19 08:29:38;;;;;;;23.52;20.92;;;20.10;82.20;;;;;;4939743;29;20667;-81
2023/09/19 08:32:04;;;;;;;29.05;21.75;;;20.10;81.90;;;;;;4939805;29;20050;-83
2023/09/19 08:34:32;;;;;;;38.88;22.98;;;20.00;81.80;;;;;;4956872;29;20030;-83
2023/09/19 08:36:58;;;;;;;25.52;21.95;;;19.80;82.50;;;;;;4956637;29;20019;-81
2023/09/19 08:39:25;;;;;;;59.03;25.67;;;19.60;82.70;;;;;;4939625;29;20649;-82
2023/09/19 08:42:01;;;;;;;27.70;21.15;;;19.50;83.60;;;;;;4956898;29;20016;-81
2023/09/19 08:44:30;;;;;;;32.13;21.77;;;19.30;83.90;;;;;;4959291;29;20114;-83
2023/09/19 08:47:08;;;;;;;27.10;19.83;;;19.20;84.60;;;;;;4959715;29;20023;-82
2023/09/19 08:49:39;;;;;;;29.63;21.35;;;19.10;84.70;;;;;;4955552;29;20043;-81
2023/09/19 08:52:23;;;;;;;36.78;21.85;;;19.00;85.50;;;;;;4942460;29;20137;-88
2023/09/19 08:54:53;;;;;;;25.60;21.00;;;18.80;85.90;;;;;;4950949;28;20054;-83
2023/09/19 08:57:22;;;;;;;51.38;24.63;;;18.80;86.30;;;;;;4940363;29;20015;-85
2023/09/19 08:59:49;;;;;;;31.88;22.48;;;18.80;86.80;;;;;;4952413;28;20106;-84
2023/09/19 09:02:18;;;;;;;30.50;23.05;;;18.70;86.80;;;;;;4947897;28;20114;-82
2023/09/19 09:04:45;;;;;;;27.85;22.42;;;18.70;86.80;;;;;;4968316;28;20098;-82
2023/09/19 09:07:12;;;;;;;31.52;22.98;;;18.60;87.40;;;;;;4935733;29;20023;-83
2023/09/19 09:09:43;;;;;;;44.75;23.48;;;18.60;88.00;;;;;;4955905;29;20043;-81
2023/09/19 09:12:14;;;;;;;32.97;23.25;;;18.60;88.20;;;;;;4955469;28;20054;-80
2023/09/19 09:14:49;;;;;;;25.17;20.77;;;18.60;88.00;;;;;;4938965;29;20113;-81
2023/09/19 09:17:20;;;;;;;27.25;20.48;;;18.60;87.90;;;;;;4949770;29;20575;-84
2023/09/19 09:19:47;;;;;;;24.83;21.83;;;18.50;88.20;;;;;;4955127;28;20023;-84
2023/09/19 09:22:13;;;;;;;38.83;22.45;;;18.50;88.60;;;;;;4938454;29;20479;-82
2023/09/19 09:24:58;;;;;;;25.65;20.25;;;18.60;89.40;;;;;;4950930;29;20103;-84
2023/09/19 09:27:24;;;;;;;37.50;23.02;;;18.70;88.60;;;;;;4945237;29;20042;-83
2023/09/19 09:29:51;;;;;;;34.78;22.13;;;18.90;88.10;;;;;;4955567;28;20134;-80
2023/09/19 09:32:21;;;;;;;;;;;19.10;87.30;;;;;;4954874;29;20035;-81
2023/09/19 09:34:57;;;;;;;28.02;20.27;;;19.30;87.20;;;;;;4955487;29;20340;-81
2023/09/19 09:37:29;;;;;;;37.33;24.27;;;19.30;86.40;;;;;;4946085;29;20020;-82
2023/09/19 09:42:46;;;;;;;38.38;22.95;;;19.20;87.00;;;;;;4951429;28;20019;-82
2023/09/19 09:48:18;;;;;;;43.45;28.42;;;19.10;87.20;;;;;;4929562;29;20055;-81
2023/09/19 09:53:32;;;;;;;40.95;24.98;;;19.20;87.00;;;;;;4949513;29;20075;-81
2023/09/19 09:56:11;;;;;;;29.33;22.23;;;19.40;87.10;;;;;;4954043;29;20038;-81
2023/09/19 09:58:51;;;;;;;34.00;22.17;;;19.50;87.40;;;;;;4954878;28;20376;-84
2023/09/19 10:01:17;;;;;;;67.82;34.92;;;19.60;86.30;;;;;;4960214;28;20110;-80
2023/09/19 10:03:47;;;;;;;33.50;22.77;;;19.40;86.10;;;;;;4957916;28;20049;-82
2023/09/19 10:09:11;;;;;;;38.08;23.90;;;19.30;86.90;;;;;;4955743;28;20047;-83
2023/09/19 10:11:56;;;;;;;26.33;21.27;;;19.40;87.10;;;;;;4947895;29;20030;-83
2023/09/19 10:14:31;;;;;;;31.70;18.42;;;19.90;86.80;;;;;;4950070;28;20024;-83
2023/09/19 10:17:03;;;;;;;31.30;21.80;;;20.30;85.20;;;;;;4958560;29;20068;-82
2023/09/19 10:20:00;;;;;;;26.63;20.30;;;20.70;83.90;;;;;;4953873;29;20038;-85
2023/09/19 10:22:30;;;;;;;30.83;20.55;;;20.90;83.00;;;;;;4936432;29;20042;-80
2023/09/19 10:24:59;;;;;;;31.00;22.55;;;21.10;82.40;;;;;;4956253;29;20076;-82
2023/09/19 10:27:26;;;;;;;25.75;20.98;;;21.20;81.70;;;;;;4954607;29;20053;-81
2023/09/19 10:29:56;;;;;;;25.80;21.05;;;21.40;81.40;;;;;;4954874;29;20126;-83
2023/09/19 10:32:25;;;;;;;25.50;20.42;;;21.40;80.60;;;;;;4956881;29;20042;-85
2023/09/19 10:34:55;;;;;;;31.13;21.58;;;21.60;80.20;;;;;;4971431;28;20020;-84
2023/09/19 10:37:25;;;;;;;24.38;18.05;;;21.60;79.70;;;;;;4944420;29;20023;-85
2023/09/19 10:39:54;;;;;;;29.73;19.98;;;21.60;79.20;;;;;;4955840;29;20088;-85
2023/09/19 10:42:20;;;;;;;27.92;20.00;;;21.50;79.50;;;;;;4951481;29;20016;-84
2023/09/19 10:44:55;;;;;;;24.07;20.43;;;21.10;80.20;;;;;;4956041;28;20106;-83
2023/09/19 10:47:24;;;;;;;37.65;29.23;;;20.90;81.80;;;;;;4939177;29;20130;-82
2023/09/19 10:49:50;;;;;;;26.92;20.42;;;20.70;81.80;;;;;;4965216;29;20023;-81
2023/09/19 10:52:20;;;;;;;30.13;20.30;;;20.50;82.50;;;;;;4965519;28;20548;-82
2023/09/19 10:54:51;;;;;;;26.48;21.40;;;20.40;83.40;;;;;;4959093;29;20031;-84
2023/09/19 10:57:27;;;;;;;25.50;20.45;;;20.30;83.50;;;;;;4955306;28;20031;-82
2023/09/19 11:00:27;;;;;;;23.27;19.13;;;20.20;83.80;;;;;;4948287;29;20029;-81
2023/09/19 11:03:11;;;;;;;28.80;21.27;;;20.20;84.20;;;;;;4953614;29;20433;-85
2023/09/19 11:05:41;;;;;;;27.23;19.35;;;20.10;84.40;;;;;;4955379;28;20031;-83
2023/09/19 11:08:07;;;;;;;28.40;19.92;;;20.10;84.80;;;;;;4938177;29;20504;-83
2023/09/19 11:10:51;;;;;;;28.83;20.03;;;20.10;85.20;;;;;;4937635;29;20033;-84
2023/09/19 11:13:28;;;;;;;22.77;19.27;;;20.10;85.10;;;;;;4936799;29;20492;-82
2023/09/19 11:16:00;;;;;;;25.15;18.60;;;20.00;85.60;;;;;;4937544;29;20495;-83
2023/09/19 11:18:41;;;;;;;26.20;19.45;;;19.90;85.60;;;;;;4954329;29;20500;-84
2023/09/19 11:21:32;;;;;;;26.27;18.38;;;19.90;86.80;;;;;;4955146;29;20023;-84
2023/09/19 11:24:10;;;;;;;27.58;19.85;;;19.90;86.60;;;;;;4954498;29;20023;-84
2023/09/19 11:26:47;;;;;;;24.15;18.70;;;20.00;86.50;;;;;;4965438;28;20027;-84
2023/09/19 11:29:30;;;;;;;32.65;20.27;;;20.00;86.30;;;;;;4940472;29;20051;-85
2023/09/19 11:31:56;;;;;;;29.70;19.60;;;19.90;86.50;;;;;;4951132;29;20550;-82
2023/09/19 11:34:45;;;;;;;28.55;23.00;;;20.00;86.80;;;;;;4934265;28;20119;-80
2023/09/19 11:37:14;;;;;;;36.65;25.75;;;20.00;86.90;;;;;;4937091;28;20058;-82
2023/09/19 11:40:01;;;;;;;22.23;18.45;;;20.00;87.00;;;;;;4954736;28;20028;-84
2023/09/19 11:42:53;;;;;;;29.23;19.98;;;20.10;86.90;;;;;;4936240;29;20122;-82
2023/09/19 11:45:49;;;;;;;39.15;19.77;;;20.10;86.50;;;;;;4935617;29;20035;-84
2023/09/19 11:48:18;;;;;;;31.87;20.40;;;20.00;86.90;;;;;;4947724;29;20126;-81
2023/09/19 11:50:47;;;;;;;42.00;23.63;;;20.00;87.50;;;;;;4936707;29;20245;-83
2023/09/19 11:53:16;;;;;;;27.23;18.77;;;20.10;87.90;;;;;;4952381;29;20437;-83
2023/09/19 11:55:45;;;;;;;26.38;18.75;;;20.10;87.90;;;;;;4936439;29;20027;-83
2023/09/19 11:58:16;;;;;;;28.25;19.88;;;20.20;87.70;;;;;;4954443;29;20050;-84
2023/09/19 12:00:45;;;;;;;27.15;17.58;;;20.30;87.70;;;;;;4940711;29;20029;-81
2023/09/19 12:03:14;;;;;;;31.95;18.40;;;20.30;87.00;;;;;;4954156;29;20063;-82
2023/09/19 12:05:40;;;;;;;22.67;18.30;;;20.30;87.00;;;;;;4954370;29;20023;-82
2023/09/19 12:08:08;;;;;;;28.80;18.02;;;20.30;87.40;;;;;;4961875;28;20043;-80
2023/09/19 12:10:49;;;;;;;22.45;16.83;;;20.30;86.90;;;;;;4961774;28;20023;-84
2023/09/19 12:13:21;;;;;;;25.42;18.25;;;20.30;86.90;;;;;;4954255;29;20043;-82
2023/09/19 12:15:50;;;;;;;27.73;18.25;;;20.30;87.20;;;;;;4954515;28;20024;-84
2023/09/19 12:18:29;;;;;;;27.13;18.10;;;20.60;87.20;;;;;;4935991;29;20031;-79
2023/09/19 12:20:57;;;;;;;24.52;16.67;;;21.00;86.80;;;;;;4953416;29;20075;-83
2023/09/19 12:23:23;;;;;;;20.20;16.17;;;21.20;85.40;;;;;;4954073;29;20023;-82
2023/09/19 12:25:53;;;;;;;27.50;17.05;;;21.40;85.00;;;;;;4936792;29;20043;-83
2023/09/19 12:28:22;;;;;;;25.35;16.70;;;21.50;84.10;;;;;;4953586;29;20038;-80
2023/09/19 12:30:49;;;;;;;27.70;19.10;;;21.60;83.60;;;;;;4938274;28;20639;-83
2023/09/19 12:33:19;;;;;;;23.80;17.23;;;21.60;84.00;;;;;;4958501;29;20033;-84
2023/09/19 12:35:45;;;;;;;37.00;18.55;;;21.50;84.30;;;;;;4957887;28;20027;-84
2023/09/19 12:38:24;;;;;;;24.20;18.10;;;21.40;84.30;;;;;;4941526;29;20027;-80
2023/09/19 12:40:51;;;;;;;28.40;17.08;;;21.30;84.50;;;;;;4964969;29;20030;-84
2023/09/19 12:43:18;;;;;;;32.67;18.17;;;21.30;85.80;;;;;;4965636;28;20034;-83
2023/09/19 12:45:44;;;;;;;31.55;18.02;;;21.20;85.70;;;;;;4959030;29;20039;-82
2023/09/19 12:48:31;;;;;;;23.17;16.70;;;21.20;85.50;;;;;;4958378;29;20056;-81
2023/09/19 12:51:01;;;;;;;28.47;17.53;;;21.20;85.30;;;;;;4963187;29;20027;-83
2023/09/19 12:53:32;;;;;;;22.77;17.05;;;21.30;85.40;;;;;;4974259;29;20273;-84